createdAt,value
2023-03-22T00:02:04.424Z,11.19
2023-03-22T00:04:31.295Z,11.24
2023-03-22T00:06:57.793Z,11.24
2023-03-22T00:09:24.399Z,11.19
2023-03-22T00:11:51.125Z,11.16
2023-03-22T00:14:18.765Z,11.17
2023-03-22T00:16:46.322Z,11.13
2023-03-22T00:19:12.906Z,11.12
2023-03-22T00:21:39.359Z,11.10
2023-03-22T00:24:06.516Z,11.05
2023-03-22T00:26:32.972Z,11.13
2023-03-22T00:28:59.760Z,11.08
2023-03-22T00:31:26.349Z,11.03
2023-03-22T00:33:52.833Z,11.06
2023-03-22T00:36:19.305Z,11.04
2023-03-22T00:38:46.009Z,11.03
2023-03-22T00:41:18.616Z,11.05
2023-03-22T00:43:46.789Z,10.94
2023-03-22T00:46:14.651Z,10.90
2023-03-22T00:48:41.681Z,10.92
2023-03-22T00:51:09.098Z,10.88
2023-03-22T00:53:42.406Z,10.91
2023-03-22T00:56:10.880Z,10.87
2023-03-22T00:58:37.348Z,10.79
2023-03-22T01:01:03.992Z,10.78
2023-03-22T01:03:30.801Z,10.78
2023-03-22T01:05:57.795Z,10.80
2023-03-22T01:08:24.332Z,10.78
2023-03-22T01:10:51.166Z,10.74
2023-03-22T01:13:18.193Z,10.71
2023-03-22T01:15:45.161Z,10.66
2023-03-22T01:18:11.705Z,10.59
2023-03-22T01:20:38.683Z,10.68
2023-03-22T01:23:05.378Z,10.66
2023-03-22T01:25:32.011Z,10.68
2023-03-22T01:27:58.972Z,10.62
2023-03-22T01:30:25.963Z,10.59
2023-03-22T01:32:52.571Z,10.61
2023-03-22T01:35:19.197Z,10.56
2023-03-22T01:37:45.801Z,10.56
2023-03-22T01:40:15.337Z,10.42
2023-03-22T01:42:42.174Z,10.55
2023-03-22T01:45:14.698Z,10.49
2023-03-22T01:47:52.144Z,10.49
2023-03-22T01:50:20.274Z,10.41
2023-03-22T01:52:48.332Z,10.47
2023-03-22T01:55:18.179Z,10.45
2023-03-22T01:57:45.618Z,10.41
2023-03-22T02:00:15.440Z,10.38
2023-03-22T02:02:48.718Z,10.37
2023-03-22T02:05:15.528Z,10.31
2023-03-22T02:07:43.136Z,10.36
2023-03-22T02:10:15.602Z,10.33
2023-03-22T02:13:03.232Z,10.31
2023-03-22T02:15:42.938Z,10.30
2023-03-22T02:18:41.653Z,10.29
2023-03-22T02:21:45.343Z,10.28
2023-03-22T02:24:46.260Z,10.26
2023-03-22T02:27:23.560Z,10.29
2023-03-22T02:30:07.063Z,10.19
2023-03-22T02:32:47.662Z,10.27
2023-03-22T02:35:14.082Z,10.28
2023-03-22T02:38:10.510Z,10.29
2023-03-22T02:41:11.345Z,10.29
2023-03-22T02:43:50.060Z,10.28
2023-03-22T02:46:22.853Z,10.16
2023-03-22T02:49:01.493Z,10.33
2023-03-22T02:51:45.862Z,10.33
2023-03-22T02:54:26.296Z,10.35
2023-03-22T02:57:00.320Z,10.34
2023-03-22T02:59:29.575Z,10.22
2023-03-22T03:01:58.654Z,10.34
2023-03-22T03:04:29.958Z,10.33
2023-03-22T03:07:01.824Z,10.36
2023-03-22T03:09:29.613Z,10.20
2023-03-22T03:11:56.069Z,10.32
2023-03-22T03:14:32.584Z,10.33
2023-03-22T03:17:44.091Z,10.32
2023-03-22T03:20:46.431Z,10.29
2023-03-22T03:23:31.190Z,10.22
2023-03-22T03:26:01.627Z,10.15
2023-03-22T03:29:05.932Z,10.19
2023-03-22T03:31:45.606Z,10.13
2023-03-22T03:34:33.721Z,10.14
2023-03-22T03:37:05.840Z,10.12
2023-03-22T03:39:37.787Z,10.09
2023-03-22T03:42:06.625Z,10.06
2023-03-22T03:44:36.164Z,10.02
2023-03-22T03:47:03.510Z,9.98
2023-03-22T03:49:30.233Z,9.97
2023-03-22T03:51:56.696Z,9.93
2023-03-22T03:54:23.352Z,9.97
2023-03-22T03:56:50.865Z,9.97
2023-03-22T03:59:18.855Z,9.95
2023-03-22T04:01:50.272Z,9.92
2023-03-22T04:04:26.709Z,9.93
2023-03-22T04:06:58.134Z,9.89
2023-03-22T04:09:27.427Z,9.82
2023-03-22T04:11:55.393Z,9.81
2023-03-22T04:14:25.176Z,9.74
2023-03-22T04:16:52.593Z,9.79
2023-03-22T04:19:19.767Z,9.74
2023-03-22T04:21:46.759Z,9.72
2023-03-22T04:24:14.090Z,9.79
2023-03-22T04:26:41.245Z,9.74
2023-03-22T04:29:07.699Z,9.74
2023-03-22T04:31:35.670Z,9.72
2023-03-22T04:34:05.731Z,9.72
2023-03-22T04:36:36.307Z,9.64
2023-03-22T04:39:05.856Z,9.62
2023-03-22T04:41:33.254Z,9.57
2023-03-22T04:44:03.312Z,9.59
2023-03-22T04:46:32.056Z,9.57
2023-03-22T04:48:58.687Z,9.57
2023-03-22T04:51:26.282Z,9.60
2023-03-22T04:53:54.080Z,9.54
2023-03-22T04:56:21.533Z,9.48
2023-03-22T04:58:48.163Z,9.59
2023-03-22T05:01:17.072Z,9.58
2023-03-22T05:03:45.688Z,9.62
2023-03-22T05:06:12.479Z,9.64
2023-03-22T05:08:39.103Z,9.61
2023-03-22T05:11:12.176Z,9.59
2023-03-22T05:13:39.168Z,9.61
2023-03-22T05:16:06.855Z,9.63
2023-03-22T05:18:33.653Z,9.62
2023-03-22T05:21:03.895Z,9.64
2023-03-22T05:23:30.546Z,9.72
2023-03-22T05:25:58.279Z,9.76
2023-03-22T05:28:27.195Z,9.77
2023-03-22T05:30:56.575Z,9.79
2023-03-22T05:33:23.526Z,9.76
2023-03-22T05:35:51.149Z,9.83
2023-03-22T05:38:17.963Z,9.72
2023-03-22T05:40:45.455Z,9.81
2023-03-22T05:43:12.060Z,9.81
2023-03-22T05:45:38.719Z,9.76
2023-03-22T05:48:05.542Z,9.74
2023-03-22T05:50:32.429Z,9.75
2023-03-22T05:52:59.113Z,9.77
2023-03-22T05:55:26.157Z,9.81
2023-03-22T05:57:54.703Z,9.78
2023-03-22T06:00:21.757Z,9.82
2023-03-22T06:02:52.248Z,9.81
2023-03-22T06:05:18.911Z,9.82
2023-03-22T06:07:47.920Z,9.85
2023-03-22T06:10:15.408Z,9.89
2023-03-22T06:12:42.001Z,9.90
2023-03-22T06:15:09.726Z,10.00
2023-03-22T06:17:36.522Z,10.00
2023-03-22T06:20:09.347Z,10.01
2023-03-22T06:22:36.512Z,10.07
2023-03-22T06:25:03.468Z,10.03
2023-03-22T06:27:29.952Z,10.12
2023-03-22T06:29:56.406Z,10.16
2023-03-22T06:32:23.677Z,10.23
2023-03-22T06:34:54.313Z,10.25
2023-03-22T06:37:21.456Z,10.32
2023-03-22T06:39:48.136Z,10.34
2023-03-22T06:42:14.785Z,10.30
2023-03-22T06:44:43.899Z,10.36
2023-03-22T06:47:11.664Z,10.43
2023-03-22T06:49:38.742Z,10.44
2023-03-22T06:52:05.664Z,10.57
2023-03-22T06:54:32.194Z,10.54
2023-03-22T06:56:58.666Z,10.52
2023-03-22T06:59:25.259Z,10.57
2023-03-22T07:01:51.698Z,10.51
2023-03-22T07:04:19.932Z,10.59
2023-03-22T07:06:46.654Z,10.68
2023-03-22T07:09:13.137Z,10.82
2023-03-22T07:11:39.613Z,11.00
2023-03-22T07:14:06.333Z,11.26
2023-03-22T07:16:32.841Z,11.30
2023-03-22T07:18:59.439Z,11.29
2023-03-22T07:21:25.921Z,11.37
2023-03-22T07:23:52.562Z,11.45
2023-03-22T07:26:19.146Z,11.54
2023-03-22T07:28:46.132Z,11.57
2023-03-22T07:31:13.760Z,11.52
2023-03-22T07:33:41.900Z,11.54
2023-03-22T07:36:09.461Z,11.47
2023-03-22T07:38:36.460Z,11.45
2023-03-22T07:41:03.427Z,11.48
2023-03-22T07:43:29.880Z,11.36
2023-03-22T07:45:57.125Z,11.40
2023-03-22T07:48:23.990Z,11.44
2023-03-22T07:50:55.421Z,11.43
2023-03-22T07:53:21.865Z,11.46
2023-03-22T07:55:48.392Z,11.41
2023-03-22T07:58:14.994Z,11.41
2023-03-22T08:00:41.809Z,11.39
2023-03-22T08:03:11.701Z,11.38
2023-03-22T08:05:42.107Z,11.39
2023-03-22T08:08:09.416Z,11.32
2023-03-22T08:10:35.934Z,11.31
2023-03-22T08:13:02.412Z,11.25
2023-03-22T08:15:28.916Z,11.22
2023-03-22T08:17:58.102Z,11.22
2023-03-22T08:20:27.564Z,11.19
2023-03-22T08:22:54.615Z,11.17
2023-03-22T08:25:21.837Z,11.23
2023-03-22T08:27:48.315Z,11.22
2023-03-22T08:30:15.623Z,11.21
2023-03-22T08:32:42.207Z,11.23
2023-03-22T08:35:09.546Z,11.22
2023-03-22T08:37:36.293Z,11.27
2023-03-22T08:40:06.467Z,11.18
2023-03-22T08:42:32.968Z,11.25
2023-03-22T08:44:59.394Z,11.23
2023-03-22T08:47:26.026Z,11.25
2023-03-22T08:49:52.467Z,11.33
2023-03-22T08:52:18.929Z,11.48
2023-03-22T08:54:45.421Z,11.57
2023-03-22T08:57:11.925Z,11.70
2023-03-22T08:59:38.384Z,11.81
2023-03-22T09:02:05.659Z,11.88
2023-03-22T09:04:32.230Z,11.92
2023-03-22T09:06:58.837Z,12.22
2023-03-22T09:09:25.392Z,12.19
2023-03-22T09:11:51.939Z,12.15
2023-03-22T09:14:18.427Z,12.18
2023-03-22T09:16:45.548Z,12.14
2023-03-22T09:19:12.093Z,12.00
2023-03-22T09:21:38.602Z,11.94
2023-03-22T09:24:05.282Z,12.02
2023-03-22T09:26:32.077Z,12.06
2023-03-22T09:28:58.561Z,11.95
2023-03-22T09:31:25.172Z,11.90
2023-03-22T09:33:51.713Z,11.97
2023-03-22T09:36:18.609Z,11.94
2023-03-22T09:38:46.612Z,11.90
2023-03-22T09:41:27.224Z,11.98
2023-03-22T09:43:58.266Z,12.03
2023-03-22T09:46:31.976Z,12.09
2023-03-22T09:49:01.607Z,12.35
2023-03-22T09:51:49.457Z,12.32
2023-03-22T09:54:29.524Z,12.29
2023-03-22T09:57:07.385Z,12.50
2023-03-22T09:59:39.992Z,12.23
2023-03-22T10:02:34.557Z,12.34
2023-03-22T10:05:13.264Z,12.46
2023-03-22T10:07:49.028Z,12.35
2023-03-22T10:10:20.259Z,12.21
2023-03-22T10:13:07.542Z,12.34
2023-03-22T10:15:40.837Z,12.36
2023-03-22T10:18:15.801Z,12.41
2023-03-22T10:21:08.066Z,12.54
2023-03-22T10:23:49.165Z,12.49
2023-03-22T10:26:22.653Z,12.58
2023-03-22T10:29:23.887Z,12.33
2023-03-22T10:31:50.416Z,12.34
2023-03-22T10:34:33.621Z,12.36
2023-03-22T10:37:04.125Z,12.23
2023-03-22T10:39:32.501Z,12.23
2023-03-22T10:42:02.858Z,12.25
2023-03-22T10:44:34.854Z,12.14
2023-03-22T10:47:07.887Z,12.12
2023-03-22T10:49:39.969Z,12.10
2023-03-22T10:52:34.674Z,12.11
2023-03-22T10:55:04.341Z,12.10
2023-03-22T10:57:31.178Z,12.15
2023-03-22T10:59:58.062Z,12.18
2023-03-22T11:02:28.017Z,12.18
2023-03-22T11:05:00.585Z,12.28
2023-03-22T11:07:36.237Z,12.29
2023-03-22T11:10:08.407Z,12.27
2023-03-22T11:12:49.421Z,12.16
2023-03-22T11:15:33.900Z,12.19
2023-03-22T11:18:12.057Z,12.04
2023-03-22T11:20:42.184Z,12.15
2023-03-22T11:23:17.732Z,12.13
2023-03-22T11:25:47.834Z,12.16
2023-03-22T11:28:34.903Z,12.16
2023-03-22T11:31:11.055Z,12.19
2023-03-22T11:33:38.372Z,12.08
2023-03-22T11:36:16.504Z,12.13
2023-03-22T11:38:44.923Z,12.08
2023-03-22T11:41:29.704Z,12.16
2023-03-22T11:44:10.536Z,12.18
2023-03-22T11:46:38.112Z,12.14
2023-03-22T11:49:14.619Z,12.11
2023-03-22T11:51:42.474Z,12.29
2023-03-22T11:54:30.075Z,12.38
2023-03-22T11:57:01.424Z,12.44
2023-03-22T11:59:30.693Z,12.37
2023-03-22T12:02:19.164Z,12.36
2023-03-22T12:04:49.039Z,12.36
2023-03-22T12:07:19.484Z,12.37
2023-03-22T12:10:25.132Z,12.38
2023-03-22T12:13:04.463Z,12.38
2023-03-22T12:15:41.020Z,12.35
2023-03-22T12:18:16.652Z,12.29
2023-03-22T12:20:55.567Z,12.46
2023-03-22T12:23:27.272Z,12.50
2023-03-22T12:26:00.030Z,12.55
2023-03-22T12:28:42.045Z,12.55
2023-03-22T12:31:17.307Z,12.58
2023-03-22T12:33:48.008Z,12.59
2023-03-22T12:36:20.675Z,12.60
2023-03-22T12:38:54.450Z,12.50
2023-03-22T12:41:27.783Z,12.51
2023-03-22T12:44:00.337Z,12.59
2023-03-22T12:46:33.379Z,12.55
2023-03-22T12:49:11.539Z,12.58
2023-03-22T12:51:38.313Z,12.56
2023-03-22T12:54:05.539Z,12.60
2023-03-22T12:56:41.114Z,12.65
2023-03-22T12:59:42.269Z,12.62
2023-03-22T13:02:16.075Z,12.59
2023-03-22T13:04:43.247Z,12.61
2023-03-22T13:07:49.713Z,12.65
2023-03-22T13:10:31.795Z,12.68
2023-03-22T13:13:07.541Z,12.71
2023-03-22T13:15:41.872Z,12.75
2023-03-22T13:18:37.641Z,12.76
2023-03-22T13:21:22.333Z,12.84
2023-03-22T13:24:04.644Z,12.87
2023-03-22T13:26:36.756Z,12.89
2023-03-22T13:29:19.082Z,12.78
2023-03-22T13:31:57.553Z,12.91
2023-03-22T13:34:31.867Z,12.93
2023-03-22T13:36:59.310Z,12.95
2023-03-22T13:39:32.967Z,12.93
2023-03-22T13:42:17.151Z,12.91
2023-03-22T13:44:46.050Z,12.89
2023-03-22T13:47:34.116Z,12.97
2023-03-22T13:50:07.506Z,12.95
2023-03-22T13:52:38.549Z,12.98
2023-03-22T13:55:18.503Z,13.01
2023-03-22T13:57:58.840Z,13.04
2023-03-22T14:00:31.519Z,13.02
2023-03-22T14:03:01.884Z,12.99
2023-03-22T14:05:32.665Z,13.08
2023-03-22T14:08:01.905Z,13.06
2023-03-22T14:10:38.501Z,12.98
2023-03-22T14:13:17.204Z,13.00
2023-03-22T14:15:53.566Z,13.02
2023-03-22T14:18:36.390Z,12.99
2023-03-22T14:21:11.461Z,12.99
